Time;durP1;ratioP1;P1;durP2;ratioP2;P2;SDS_P1;SDS_P2;PMS_P1;PMS_P2;Temp;Humidity;BMP_temperature;BMP_pressure;BME280_temperature;BME280_humidity;BME280_pressure;Samples;Min_cycle;Max_cycle;Signal;HPM_P1;HPM_P2
2022/01/09 00:00:07;;;;;;;3.10;0.50;;;4.90;99.90;;;;;;5031568;28;20419;-61
2022/01/09 00:02:33;;;;;;;3.70;0.50;;;4.90;99.90;;;;;;5046712;28;20417;-62
2022/01/09 00:04:58;;;;;;;3.20;0.47;;;5.00;99.90;;;;;;5071609;28;20379;-62
2022/01/09 00:07:24;;;;;;;3.10;0.40;;;4.90;99.90;;;;;;5073049;28;20466;-63
2022/01/09 00:09:50;;;;;;;4.55;0.70;;;4.80;99.90;;;;;;5072222;28;20387;-59
2022/01/09 00:12:15;;;;;;;2.90;0.30;;;4.90;99.90;;;;;;5072570;28;20379;-62
2022/01/09 00:14:41;;;;;;;2.80;0.35;;;4.90;99.90;;;;;;5054885;28;20454;-62
2022/01/09 00:17:07;;;;;;;2.90;0.30;;;4.90;99.90;;;;;;5071898;28;20383;-62
2022/01/09 00:19:32;;;;;;;3.00;0.40;;;4.80;99.90;;;;;;5072835;28;20422;-62
2022/01/09 00:21:58;;;;;;;2.90;0.40;;;4.80;99.90;;;;;;5071981;28;20798;-62
2022/01/09 00:24:24;;;;;;;3.03;0.40;;;5.10;99.90;;;;;;5072616;28;20380;-63
2022/01/09 00:26:49;;;;;;;2.80;0.30;;;4.90;99.90;;;;;;5072368;28;20433;-60
2022/01/09 00:29:15;;;;;;;4.30;0.40;;;4.80;99.90;;;;;;5067178;28;20397;-62
2022/01/09 00:31:41;;;;;;;2.90;0.30;;;4.90;99.90;;;;;;5059729;28;20389;-63
2022/01/09 00:34:06;;;;;;;3.10;0.40;;;4.90;99.90;;;;;;5054887;28;20380;-63
2022/01/09 00:36:32;;;;;;;2.90;0.40;;;4.90;99.90;;;;;;5072380;28;20384;-63
2022/01/09 00:38:58;;;;;;;3.80;0.40;;;4.80;99.90;;;;;;5053797;28;20398;-63
2022/01/09 00:41:24;;;;;;;2.97;0.40;;;4.80;99.90;;;;;;5072401;28;20433;-63
2022/01/09 00:43:50;;;;;;;2.93;0.33;;;4.80;99.90;;;;;;5071697;28;20372;-59
2022/01/09 00:46:17;;;;;;;3.30;0.40;;;4.80;99.90;;;;;;5054198;28;20372;-63
2022/01/09 00:48:42;;;;;;;3.10;0.40;;;4.80;99.90;;;;;;5072478;28;20401;-62
2022/01/09 00:51:08;;;;;;;3.00;0.30;;;4.80;99.90;;;;;;5071017;28;20371;-61
2022/01/09 00:53:34;;;;;;;2.80;0.30;;;4.70;99.90;;;;;;5062913;28;20892;-61
2022/01/09 00:55:59;;;;;;;2.90;0.45;;;4.80;99.90;;;;;;5060718;28;20380;-62
2022/01/09 00:58:25;;;;;;;2.80;0.30;;;4.80;99.90;;;;;;5055329;28;20427;-61
2022/01/09 01:00:52;;;;;;;3.07;0.30;;;4.70;99.90;;;;;;5063470;28;20461;-59
2022/01/09 01:03:19;;;;;;;2.80;0.30;;;5.30;99.90;;;;;;5071612;28;20869;-62
2022/01/09 01:05:44;;;;;;;2.80;0.30;;;4.80;99.90;;;;;;5064898;28;20470;-61
2022/01/09 01:08:10;;;;;;;2.90;0.40;;;4.80;99.90;;;;;;5069293;28;20872;-61
2022/01/09 01:10:36;;;;;;;2.80;0.30;;;5.30;99.90;;;;;;5071999;28;20391;-62
2022/01/09 01:13:02;;;;;;;2.80;0.30;;;4.70;99.90;;;;;;5070081;28;20549;-62
2022/01/09 01:15:28;;;;;;;2.80;0.30;;;4.70;99.90;;;;;;5071132;28;20420;-62
2022/01/09 01:17:54;;;;;;;2.83;0.30;;;4.50;99.90;;;;;;5052277;28;20404;-61
2022/01/09 01:20:22;;;;;;;2.80;0.20;;;4.60;99.90;;;;;;5051631;28;20839;-62
2022/01/09 01:22:50;;;;;;;2.70;0.20;;;4.60;99.90;;;;;;5033856;28;20806;-63
2022/01/09 01:25:20;;;;;;;3.00;0.30;;;4.60;99.90;;;;;;5051649;28;20922;-62
2022/01/09 01:27:46;;;;;;;2.70;0.30;;;4.60;99.90;;;;;;5051769;28;20378;-64
2022/01/09 01:30:13;;;;;;;2.70;0.30;;;4.70;99.90;;;;;;5050688;28;20431;-62
2022/01/09 01:32:41;;;;;;;2.90;0.30;;;4.70;99.90;;;;;;5051669;28;20417;-62
2022/01/09 01:35:07;;;;;;;2.90;0.30;;;4.60;99.90;;;;;;5050790;28;20377;-63
2022/01/09 01:37:34;;;;;;;2.80;0.30;;;4.70;99.90;;;;;;5051639;28;20428;-63
2022/01/09 01:39:59;;;;;;;2.70;0.30;;;4.70;99.90;;;;;;5061236;28;20381;-61
2022/01/09 01:42:25;;;;;;;2.90;0.40;;;4.80;99.90;;;;;;5055221;28;20942;-63
2022/01/09 01:44:51;;;;;;;2.75;0.30;;;4.70;99.90;;;;;;5070096;28;20422;-59
2022/01/09 01:47:19;;;;;;;2.80;0.30;;;4.70;99.90;;;;;;5070818;28;20415;-62
2022/01/09 01:49:46;;;;;;;2.70;0.20;;;4.80;99.90;;;;;;5070128;28;20406;-63
2022/01/09 01:52:15;;;;;;;2.88;0.30;;;4.90;99.90;;;;;;5050195;28;20393;-63
2022/01/09 01:54:43;;;;;;;2.70;0.30;;;4.90;99.90;;;;;;5050918;28;20476;-63
2022/01/09 01:57:09;;;;;;;2.70;0.20;;;5.00;99.90;;;;;;5050296;28;20391;-63
2022/01/09 01:59:35;;;;;;;2.80;0.30;;;5.10;99.90;;;;;;5067643;28;20463;-63
2022/01/09 02:02:00;;;;;;;2.70;0.20;;;5.10;99.90;;;;;;5069712;28;20462;-62
2022/01/09 02:04:26;;;;;;;3.10;0.20;;;5.20;99.90;;;;;;5070937;28;20884;-63
2022/01/09 02:06:53;;;;;;;2.90;0.30;;;5.10;99.90;;;;;;5070165;28;20626;-59
2022/01/09 02:09:19;;;;;;;2.70;0.20;;;5.10;99.90;;;;;;5070554;28;20379;-63
2022/01/09 02:11:45;;;;;;;2.80;0.20;;;5.10;99.90;;;;;;5070772;28;20468;-63
2022/01/09 02:14:11;;;;;;;2.80;0.20;;;5.10;99.90;;;;;;5056469;28;20396;-63
2022/01/09 02:16:41;;;;;;;3.80;0.30;;;5.10;99.90;;;;;;5050610;28;20373;-63
2022/01/09 02:19:13;;;;;;;2.80;0.30;;;5.10;99.90;;;;;;5049797;28;20401;-63
2022/01/09 02:21:44;;;;;;;3.33;0.40;;;5.40;99.90;;;;;;5050166;28;20775;-63
2022/01/09 02:24:10;;;;;;;3.00;0.30;;;5.20;99.90;;;;;;5048543;28;20382;-63
2022/01/09 02:26:36;;;;;;;3.10;0.30;;;5.20;99.90;;;;;;5050615;28;20420;-62
2022/01/09 02:29:07;;;;;;;2.80;0.30;;;5.10;99.90;;;;;;5049376;28;20386;-63
2022/01/09 02:31:35;;;;;;;2.70;0.30;;;5.10;99.90;;;;;;5050443;28;20963;-64
2022/01/09 02:34:03;;;;;;;2.90;0.30;;;5.10;99.90;;;;;;5049397;28;20392;-62
2022/01/09 02:36:30;;;;;;;3.10;0.40;;;5.00;99.90;;;;;;5050577;28;20393;-63
2022/01/09 02:38:56;;;;;;;2.70;0.30;;;5.00;99.90;;;;;;5049040;28;20439;-62
2022/01/09 02:41:22;;;;;;;2.80;0.30;;;4.90;99.90;;;;;;5049799;28;20409;-62
2022/01/09 02:43:47;;;;;;;2.90;0.30;;;4.90;99.90;;;;;;5049980;28;20390;-62
2022/01/09 02:46:29;;;;;;;2.70;0.30;;;4.90;99.90;;;;;;5049185;28;20456;-62
2022/01/09 02:48:55;;;;;;;2.80;0.30;;;4.90;99.90;;;;;;5048956;28;20457;-59
2022/01/09 02:51:21;;;;;;;2.83;0.30;;;5.00;99.90;;;;;;5049906;28;20473;-63
2022/01/09 02:53:49;;;;;;;2.90;0.30;;;4.90;99.90;;;;;;5050091;28;20425;-63
2022/01/09 02:56:16;;;;;;;2.70;0.20;;;4.90;99.90;;;;;;5048941;28;20460;-63
2022/01/09 02:58:42;;;;;;;2.80;0.30;;;4.90;99.90;;;;;;5049475;28;20416;-62
2022/01/09 03:01:10;;;;;;;2.70;0.20;;;4.90;99.90;;;;;;5049003;28;20417;-63
2022/01/09 03:03:37;;;;;;;2.70;0.22;;;4.90;99.90;;;;;;5049629;28;20716;-63
2022/01/09 03:06:03;;;;;;;2.90;0.30;;;4.90;99.90;;;;;;5048577;28;20472;-63
2022/01/09 03:08:30;;;;;;;3.10;0.40;;;4.90;99.90;;;;;;5049797;28;20859;-62
2022/01/09 03:10:56;;;;;;;3.10;0.57;;;5.00;99.90;;;;;;5048719;28;20892;-59
2022/01/09 03:13:21;;;;;;;2.80;0.30;;;5.50;99.90;;;;;;5049598;28;20381;-63
2022/01/09 03:15:47;;;;;;;2.80;0.30;;;5.10;99.90;;;;;;5049223;28;20432;-63
2022/01/09 03:18:13;;;;;;;2.70;0.30;;;5.00;99.90;;;;;;5047622;28;20883;-63
2022/01/09 03:20:39;;;;;;;3.30;0.30;;;6.20;99.90;;;;;;5048248;28;20401;-63
2022/01/09 03:23:05;;;;;;;2.80;0.25;;;5.10;99.90;;;;;;5048555;28;20425;-63
2022/01/09 03:25:31;;;;;;;2.80;0.40;;;5.00;99.90;;;;;;5049436;28;20400;-63
2022/01/09 03:27:58;;;;;;;2.90;0.37;;;5.00;99.90;;;;;;5030923;28;20871;-60
2022/01/09 03:30:27;;;;;;;2.90;0.40;;;5.20;99.90;;;;;;5049179;28;20384;-63
2022/01/09 03:32:54;;;;;;;2.85;0.30;;;5.10;99.90;;;;;;5049120;28;20393;-60
2022/01/09 03:35:22;;;;;;;2.92;0.30;;;5.70;99.90;;;;;;5048342;28;20386;-62
2022/01/09 03:37:49;;;;;;;3.30;0.40;;;5.10;99.90;;;;;;5049208;28;20378;-63
2022/01/09 03:40:20;;;;;;;2.90;0.30;;;5.30;99.90;;;;;;5048010;28;20878;-63
2022/01/09 03:42:47;;;;;;;2.90;0.30;;;5.20;99.90;;;;;;5048990;28;20409;-63
2022/01/09 03:45:13;;;;;;;3.60;0.30;;;5.20;99.90;;;;;;5048349;28;20408;-63
2022/01/09 03:47:39;;;;;;;3.80;0.30;;;5.30;99.90;;;;;;5049090;28;20386;-63
2022/01/09 03:50:07;;;;;;;3.22;0.50;;;5.30;99.90;;;;;;5048452;28;20389;-64
2022/01/09 03:52:36;;;;;;;2.80;0.30;;;5.30;99.90;;;;;;5049078;28;20886;-65
2022/01/09 03:55:03;;;;;;;3.72;0.50;;;5.30;99.90;;;;;;5048522;28;20374;-63
2022/01/09 03:57:28;;;;;;;2.90;0.40;;;5.30;99.90;;;;;;5048885;28;20921;-63
2022/01/09 03:59:55;;;;;;;3.60;0.40;;;5.30;99.90;;;;;;5031014;28;20456;-60
2022/01/09 04:02:20;;;;;;;2.80;0.30;;;5.30;99.90;;;;;;5048922;28;20502;-64
2022/01/09 04:04:46;;;;;;;3.10;0.30;;;6.80;99.90;;;;;;5048893;28;20452;-63
2022/01/09 04:07:11;;;;;;;3.13;0.40;;;5.30;99.90;;;;;;5048492;28;20427;-61
2022/01/09 04:09:41;;;;;;;2.83;0.30;;;5.40;99.90;;;;;;5049180;28;20938;-63
2022/01/09 04:12:15;;;;;;;3.30;0.60;;;5.30;99.90;;;;;;5048078;28;20398;-62
2022/01/09 04:14:50;;;;;;;3.30;0.30;;;5.20;99.90;;;;;;5048712;28;20406;-63
2022/01/09 04:17:34;;;;;;;3.80;0.40;;;5.30;99.90;;;;;;5048249;28;20414;-61
2022/01/09 04:20:00;;;;;;;2.97;0.30;;;5.30;99.90;;;;;;5048308;28;20377;-62
2022/01/09 04:22:26;;;;;;;2.90;0.30;;;5.30;99.90;;;;;;5049115;28;20921;-62
2022/01/09 04:24:51;;;;;;;5.30;0.45;;;5.30;99.90;;;;;;5048582;28;20462;-63
2022/01/09 04:27:17;;;;;;;3.07;0.30;;;5.20;99.90;;;;;;5048534;28;20374;-63
2022/01/09 04:29:43;;;;;;;3.30;0.50;;;5.20;99.90;;;;;;5048832;28;20393;-63
2022/01/09 04:32:09;;;;;;;3.97;0.40;;;5.20;99.90;;;;;;5054932;28;20401;-63
2022/01/09 04:34:34;;;;;;;2.90;0.30;;;5.10;99.90;;;;;;5055427;28;20376;-63
2022/01/09 04:37:00;;;;;;;3.00;0.40;;;5.10;99.90;;;;;;5048025;28;20502;-62
2022/01/09 04:39:27;;;;;;;2.90;0.40;;;5.10;99.90;;;;;;5048667;28;20381;-62
2022/01/09 04:41:53;;;;;;;2.80;0.40;;;5.00;99.90;;;;;;5048552;28;20409;-63
2022/01/09 04:44:19;;;;;;;2.60;0.20;;;4.90;99.90;;;;;;5048203;28;20715;-63
2022/01/09 04:46:51;;;;;;;2.60;0.30;;;4.90;99.90;;;;;;5048846;28;20386;-62
2022/01/09 04:49:21;;;;;;;2.60;0.30;;;4.80;99.90;;;;;;5065714;28;20437;-62
2022/01/09 04:51:47;;;;;;;3.10;0.50;;;4.80;99.90;;;;;;5072078;28;20861;-62
2022/01/09 04:54:13;;;;;;;3.80;0.20;;;4.80;99.90;;;;;;5071199;28;20384;-62
2022/01/09 04:56:38;;;;;;;2.50;0.20;;;4.70;99.90;;;;;;5071812;28;20459;-63
2022/01/09 04:59:04;;;;;;;2.40;0.20;;;4.70;99.90;;;;;;5071097;28;20406;-61
2022/01/09 05:01:30;;;;;;;2.70;0.20;;;4.70;99.90;;;;;;5072109;28;20415;-60
2022/01/09 05:03:55;;;;;;;2.60;0.30;;;4.50;99.90;;;;;;5071645;28;20861;-58
2022/01/09 05:06:21;;;;;;;2.50;0.20;;;4.50;99.90;;;;;;5071116;28;20380;-61
2022/01/09 05:08:47;;;;;;;2.50;0.20;;;4.60;99.90;;;;;;5051941;28;20445;-61
2022/01/09 05:11:13;;;;;;;2.50;0.20;;;4.70;99.90;;;;;;5050867;28;20385;-60
2022/01/09 05:13:38;;;;;;;2.50;0.20;;;4.40;99.90;;;;;;5051883;28;20917;-61
2022/01/09 05:16:04;;;;;;;2.53;0.27;;;4.40;99.90;;;;;;5051135;28;20801;-62
2022/01/09 05:18:30;;;;;;;2.50;0.20;;;4.30;99.90;;;;;;5051519;28;20863;-62
2022/01/09 05:20:56;;;;;;;2.50;0.20;;;4.20;99.90;;;;;;5051098;28;20381;-59
2022/01/09 05:23:21;;;;;;;2.50;0.20;;;4.10;99.90;;;;;;5050880;28;20969;-62
2022/01/09 05:25:47;;;;;;;2.70;0.30;;;4.10;99.90;;;;;;5051452;28;20385;-62
2022/01/09 05:28:13;;;;;;;2.60;0.20;;;3.90;99.90;;;;;;5050678;28;20435;-62
2022/01/09 05:30:38;;;;;;;2.70;0.20;;;4.40;99.90;;;;;;5051404;28;20773;-62
2022/01/09 05:33:04;;;;;;;3.50;0.20;;;3.90;99.90;;;;;;5050240;28;20412;-62
2022/01/09 05:35:30;;;;;;;3.20;0.30;;;4.30;99.90;;;;;;5050059;28;20440;-63
2022/01/09 05:37:55;;;;;;;3.20;0.20;;;3.80;99.90;;;;;;5051027;28;20397;-59
2022/01/09 05:40:21;;;;;;;2.60;0.30;;;3.80;99.90;;;;;;5050922;28;20381;-63
2022/01/09 05:42:47;;;;;;;2.80;0.20;;;3.80;99.90;;;;;;5051093;28;20520;-62
2022/01/09 05:45:16;;;;;;;2.50;0.20;;;3.80;99.90;;;;;;5050771;28;20429;-63
2022/01/09 05:47:42;;;;;;;3.50;0.30;;;4.40;99.90;;;;;;5051316;28;20874;-62
2022/01/09 05:50:08;;;;;;;2.50;0.20;;;3.80;99.90;;;;;;5050385;28;20491;-63
2022/01/09 05:52:34;;;;;;;2.60;0.30;;;3.90;99.90;;;;;;5051329;28;20382;-62
2022/01/09 05:55:00;;;;;;;4.10;0.50;;;5.00;99.90;;;;;;5050552;28;20408;-58
2022/01/09 05:57:25;;;;;;;3.10;0.50;;;3.90;99.90;;;;;;5050864;28;20382;-62
2022/01/09 05:59:51;;;;;;;3.20;0.50;;;4.00;99.90;;;;;;5032856;28;20905;-62
2022/01/09 06:02:16;;;;;;;3.58;0.57;;;3.90;99.90;;;;;;5049845;28;20409;-62
2022/01/09 06:04:43;;;;;;;3.50;0.43;;;4.00;99.90;;;;;;5050957;28;20463;-63
2022/01/09 06:07:08;;;;;;;3.70;0.60;;;4.00;99.90;;;;;;5049956;28;20476;-63
2022/01/09 06:09:34;;;;;;;3.60;0.60;;;4.00;99.90;;;;;;5049589;28;20496;-63
2022/01/09 06:11:59;;;;;;;3.20;0.50;;;4.00;99.90;;;;;;5049838;28;20440;-58
2022/01/09 06:14:25;;;;;;;3.17;0.50;;;4.10;99.90;;;;;;5050261;28;20420;-63
2022/01/09 06:16:51;;;;;;;4.25;0.80;;;4.10;99.90;;;;;;5049374;28;20461;-62
2022/01/09 06:19:16;;;;;;;6.47;1.10;;;6.00;99.90;;;;;;5050039;28;20863;-63
2022/01/09 06:21:42;;;;;;;5.90;0.70;;;4.20;99.90;;;;;;5050455;28;21025;-61
2022/01/09 06:24:08;;;;;;;4.80;0.60;;;4.30;99.90;;;;;;5049857;28;20385;-62
2022/01/09 06:26:33;;;;;;;5.13;0.60;;;5.90;99.90;;;;;;5050480;28;20384;-63
2022/01/09 06:28:59;;;;;;;4.10;0.60;;;4.30;99.90;;;;;;5049875;28;20381;-58
2022/01/09 06:31:25;;;;;;;3.70;0.50;;;4.20;99.90;;;;;;5050386;28;20392;-62
2022/01/09 06:33:50;;;;;;;4.70;0.60;;;4.30;99.90;;;;;;5050349;28;20386;-61
2022/01/09 06:36:16;;;;;;;4.50;0.70;;;4.20;99.90;;;;;;5049274;28;20882;-61
2022/01/09 06:38:42;;;;;;;3.60;0.50;;;4.30;99.90;;;;;;5050300;28;20384;-62
2022/01/09 06:41:08;;;;;;;4.10;0.60;;;4.30;99.90;;;;;;5031409;28;20378;-62
2022/01/09 06:43:34;;;;;;;3.60;0.60;;;4.30;99.90;;;;;;5046439;28;20782;-62
2022/01/09 06:45:59;;;;;;;4.53;0.50;;;4.30;99.90;;;;;;5069281;28;20481;-58
2022/01/09 06:48:25;;;;;;;3.20;0.53;;;6.10;99.90;;;;;;5069016;28;20391;-62
2022/01/09 06:50:50;;;;;;;3.00;0.67;;;4.30;99.90;;;;;;5070117;28;20383;-62
2022/01/09 06:53:16;;;;;;;3.60;0.63;;;4.30;99.90;;;;;;5068916;28;20467;-62
2022/01/09 06:55:43;;;;;;;3.20;0.60;;;4.80;99.90;;;;;;5069844;28;20383;-62
2022/01/09 06:58:09;;;;;;;4.53;0.50;;;4.20;99.90;;;;;;5069142;28;20400;-62
2022/01/09 07:00:34;;;;;;;4.13;0.70;;;4.20;99.90;;;;;;5069853;28;20399;-62
2022/01/09 07:03:00;;;;;;;7.10;1.30;;;4.20;99.90;;;;;;5069037;28;20411;-59
2022/01/09 07:05:26;;;;;;;4.30;1.30;;;4.30;99.90;;;;;;5061343;28;20513;-63
2022/01/09 07:07:51;;;;;;;5.00;1.40;;;4.30;99.90;;;;;;5070200;28;20445;-63
2022/01/09 07:10:17;;;;;;;5.20;1.17;;;4.30;99.90;;;;;;5067862;28;21268;-63
2022/01/09 07:12:43;;;;;;;6.68;1.20;;;4.30;99.90;;;;;;5069546;28;20415;-64
2022/01/09 07:15:09;;;;;;;5.30;1.20;;;5.10;99.90;;;;;;5068503;28;20440;-62
2022/01/09 07:17:34;;;;;;;4.80;1.00;;;4.30;99.90;;;;;;5035174;28;20743;-62
2022/01/09 07:20:00;;;;;;;6.97;1.47;;;4.20;99.90;;;;;;5068824;28;20376;-59
2022/01/09 07:22:27;;;;;;;7.38;1.30;;;4.20;99.90;;;;;;5069090;28;20415;-63
2022/01/09 07:24:53;;;;;;;4.45;1.20;;;4.30;99.90;;;;;;5069535;28;20392;-63
2022/01/09 07:27:19;;;;;;;6.70;1.38;;;4.30;99.90;;;;;;5068781;28;20367;-62
2022/01/09 07:29:44;;;;;;;9.50;1.60;;;4.30;99.90;;;;;;5069095;28;20380;-63
2022/01/09 07:32:10;;;;;;;6.40;1.20;;;4.30;99.90;;;;;;5068874;28;20391;-63
2022/01/09 07:34:36;;;;;;;5.45;1.58;;;4.50;99.90;;;;;;5069242;28;20466;-63
2022/01/09 07:37:02;;;;;;;6.23;1.40;;;4.30;99.90;;;;;;5068672;28;20439;-59
2022/01/09 07:39:28;;;;;;;5.60;1.33;;;4.30;99.90;;;;;;5069143;28;20388;-62
2022/01/09 07:41:54;;;;;;;5.25;1.40;;;4.40;99.90;;;;;;5069128;28;20911;-62
2022/01/09 07:44:20;;;;;;;7.18;1.05;;;4.70;99.90;;;;;;5050470;28;20943;-62
2022/01/09 07:46:46;;;;;;;6.50;1.07;;;4.20;99.90;;;;;;5069159;28;20484;-62
2022/01/09 07:49:11;;;;;;;6.20;1.17;;;4.20;99.90;;;;;;5050300;28;20384;-63
2022/01/09 07:51:37;;;;;;;7.70;1.10;;;4.20;99.90;;;;;;5068331;28;20395;-62
2022/01/09 07:54:03;;;;;;;5.17;0.87;;;4.10;99.90;;;;;;5067742;28;20372;-62
2022/01/09 07:56:28;;;;;;;4.95;1.13;;;5.60;99.90;;;;;;5054732;28;20397;-63
2022/01/09 07:58:54;;;;;;;4.20;0.90;;;4.10;99.90;;;;;;5066570;28;20388;-62
2022/01/09 08:01:20;;;;;;;6.25;0.98;;;4.00;99.90;;;;;;5067359;28;20375;-62
2022/01/09 08:03:45;;;;;;;6.00;1.10;;;4.90;99.90;;;;;;5068076;28;20458;-62
2022/01/09 08:06:11;;;;;;;5.67;0.90;;;4.00;99.90;;;;;;5067382;28;20384;-62
2022/01/09 08:08:36;;;;;;;6.72;1.30;;;4.10;99.90;;;;;;5068644;28;20383;-61
2022/01/09 08:11:02;;;;;;;5.10;1.30;;;3.90;99.90;;;;;;5067237;28;20967;-58
2022/01/09 08:13:28;;;;;;;7.13;1.10;;;4.00;99.90;;;;;;5066015;28;20471;-62
2022/01/09 08:15:53;;;;;;;4.33;0.90;;;5.30;99.90;;;;;;5067958;28;20464;-62
2022/01/09 08:18:19;;;;;;;5.33;1.00;;;4.00;99.90;;;;;;5067395;28;20450;-62
2022/01/09 08:20:44;;;;;;;7.40;1.30;;;4.00;99.90;;;;;;5068445;28;20825;-62
2022/01/09 08:23:10;;;;;;;9.27;1.70;;;4.10;99.90;;;;;;5070754;28;20875;-62
2022/01/09 08:25:36;;;;;;;6.55;1.40;;;4.80;99.90;;;;;;5072107;28;20398;-63
2022/01/09 08:28:02;;;;;;;7.10;1.60;;;5.70;99.90;;;;;;5061970;28;20384;-59
2022/01/09 08:30:27;;;;;;;4.97;1.23;;;4.10;99.90;;;;;;5071972;28;20922;-62
2022/01/09 08:32:53;;;;;;;6.80;1.20;;;4.20;99.90;;;;;;5070053;28;20395;-62
2022/01/09 08:35:21;;;;;;;6.85;1.30;;;4.20;99.90;;;;;;5053027;28;20382;-62
2022/01/09 08:37:47;;;;;;;4.35;1.00;;;4.30;99.90;;;;;;5052330;28;20461;-62
2022/01/09 08:40:19;;;;;;;5.20;1.10;;;4.30;99.90;;;;;;5068260;28;20489;-62
2022/01/09 08:42:46;;;;;;;5.57;1.10;;;4.30;99.90;;;;;;5068669;28;20484;-62
2022/01/09 08:45:12;;;;;;;7.28;1.10;;;4.40;99.90;;;;;;5064924;28;20418;-60
2022/01/09 08:47:38;;;;;;;7.70;1.00;;;4.40;99.90;;;;;;5062075;28;20486;-62
2022/01/09 08:50:06;;;;;;;12.65;1.63;;;4.50;99.90;;;;;;5059572;28;20409;-61
2022/01/09 08:52:32;;;;;;;5.97;1.00;;;4.60;99.90;;;;;;5057028;28;20405;-62
2022/01/09 08:54:58;;;;;;;4.10;1.10;;;4.80;99.90;;;;;;5058363;28;20458;-60
2022/01/09 08:57:25;;;;;;;11.23;1.50;;;5.40;99.90;;;;;;5059087;28;20487;-62
2022/01/09 08:59:52;;;;;;;9.93;1.00;;;4.70;99.90;;;;;;5060672;28;20401;-62
2022/01/09 09:02:18;;;;;;;4.55;0.93;;;4.70;99.90;;;;;;5055470;28;20494;-60
2022/01/09 09:04:44;;;;;;;6.45;1.00;;;4.90;99.90;;;;;;5057311;28;20397;-62
2022/01/09 09:07:09;;;;;;;7.70;1.17;;;4.80;99.90;;;;;;5045011;28;20797;-62
2022/01/09 09:09:37;;;;;;;4.60;1.13;;;4.80;99.90;;;;;;5054026;28;20459;-63
2022/01/09 09:12:03;;;;;;;5.70;1.30;;;4.80;99.90;;;;;;5054578;28;20416;-61
2022/01/09 09:14:30;;;;;;;9.80;1.90;;;4.70;99.90;;;;;;5051523;28;20418;-62
2022/01/09 09:16:55;;;;;;;7.47;1.10;;;5.70;99.90;;;;;;5057214;28;20385;-63
2022/01/09 09:19:21;;;;;;;6.70;1.43;;;4.70;99.90;;;;;;5060139;28;20390;-63
2022/01/09 09:21:47;;;;;;;8.40;1.00;;;4.70;99.90;;;;;;5057350;28;20498;-62
2022/01/09 09:24:13;;;;;;;6.90;0.90;;;4.70;99.90;;;;;;5053531;28;20403;-62
2022/01/09 09:26:39;;;;;;;8.20;1.80;;;4.70;99.90;;;;;;5060209;28;20395;-61
2022/01/09 09:29:07;;;;;;;5.50;0.90;;;4.60;99.90;;;;;;5060204;28;20466;-61
2022/01/09 09:31:34;;;;;;;7.95;1.20;;;4.70;99.90;;;;;;5061562;28;20455;-62
2022/01/09 09:34:00;;;;;;;5.72;0.70;;;4.70;99.90;;;;;;5054465;28;20821;-59
2022/01/09 09:36:27;;;;;;;7.60;1.70;;;5.60;99.90;;;;;;5052594;28;20394;-62
2022/01/09 09:38:53;;;;;;;8.88;1.83;;;4.70;99.90;;;;;;5055870;28;20406;-63
2022/01/09 09:41:25;;;;;;;4.30;0.80;;;5.80;99.90;;;;;;5061130;28;20898;-63
2022/01/09 09:43:52;;;;;;;5.90;1.20;;;4.70;99.90;;;;;;5056822;28;20392;-63
2022/01/09 09:46:25;;;;;;;5.63;1.20;;;4.90;99.90;;;;;;5056149;28;20384;-63
2022/01/09 09:48:54;;;;;;;4.13;0.73;;;4.90;99.90;;;;;;5056428;28;20444;-63
2022/01/09 09:51:20;;;;;;;4.13;0.70;;;4.90;99.90;;;;;;5057044;28;20574;-63
2022/01/09 09:53:46;;;;;;;5.68;1.10;;;4.80;99.90;;;;;;5060029;28;20395;-63
2022/01/09 09:56:11;;;;;;;4.05;1.02;;;4.90;99.90;;;;;;5056366;28;20444;-63
2022/01/09 09:58:41;;;;;;;6.77;1.30;;;5.10;99.90;;;;;;5056702;28;20390;-63
2022/01/09 10:01:08;;;;;;;6.97;1.10;;;5.10;99.90;;;;;;5060170;28;20390;-63
2022/01/09 10:03:34;;;;;;;6.30;1.20;;;5.10;99.90;;;;;;5055638;28;20827;-63
2022/01/09 10:06:01;;;;;;;5.30;1.13;;;5.20;99.90;;;;;;5052277;28;20519;-59
2022/01/09 10:08:36;;;;;;;4.93;1.00;;;5.20;99.90;;;;;;5060662;28;20385;-63
2022/01/09 10:11:40;;;;;;;9.15;1.60;;;5.00;99.90;;;;;;5054231;28;20397;-59
2022/01/09 10:14:15;;;;;;;5.18;1.20;;;5.20;99.90;;;;;;5038514;28;20490;-63
2022/01/09 10:16:41;;;;;;;6.78;1.80;;;5.80;99.90;;;;;;5052905;28;20409;-62
2022/01/09 10:19:07;;;;;;;6.45;1.70;;;5.60;99.90;;;;;;5055387;28;20469;-62
2022/01/09 10:21:32;;;;;;;8.13;1.40;;;5.50;99.90;;;;;;5057901;28;20482;-61
2022/01/09 10:24:03;;;;;;;5.50;1.13;;;5.20;99.90;;;;;;5051420;28;20440;-62
2022/01/09 10:26:31;;;;;;;7.82;1.55;;;5.40;99.90;;;;;;5060982;28;20413;-62
2022/01/09 10:29:00;;;;;;;6.60;1.38;;;5.00;99.90;;;;;;5050496;28;20405;-62
2022/01/09 10:31:26;;;;;;;5.55;1.10;;;5.10;99.90;;;;;;5065160;28;20395;-62
2022/01/09 10:34:01;;;;;;;6.88;1.10;;;4.10;99.90;;;;;;5069435;28;20434;-63
2022/01/09 10:36:39;;;;;;;5.20;1.00;;;5.20;99.90;;;;;;5062709;28;20403;-62
2022/01/09 10:39:07;;;;;;;7.55;1.50;;;5.30;99.90;;;;;;5061677;28;20865;-60
2022/01/09 10:41:49;;;;;;;9.18;1.50;;;5.40;99.90;;;;;;5069058;28;20407;-64
2022/01/09 10:44:17;;;;;;;5.68;1.50;;;5.50;99.90;;;;;;5067285;28;20391;-62
2022/01/09 10:46:56;;;;;;;7.03;1.20;;;5.60;99.90;;;;;;5069146;28;20388;-61
2022/01/09 10:49:23;;;;;;;4.80;1.10;;;5.50;99.90;;;;;;5068895;28;20855;-62
2022/01/09 10:51:49;;;;;;;10.15;1.08;;;5.50;99.90;;;;;;5066345;28;20860;-62
2022/01/09 10:54:31;;;;;;;5.50;1.20;;;5.60;99.90;;;;;;5064753;28;20482;-62
2022/01/09 10:57:12;;;;;;;6.60;1.20;;;5.70;99.90;;;;;;5058033;28;20411;-63
2022/01/09 10:59:38;;;;;;;5.43;1.10;;;5.80;99.90;;;;;;5069069;28;20383;-63
2022/01/09 11:02:05;;;;;;;5.00;1.20;;;5.90;99.90;;;;;;5062106;28;20425;-60
2022/01/09 11:04:30;;;;;;;6.50;1.00;;;5.80;99.90;;;;;;5052608;28;20409;-62
2022/01/09 11:06:56;;;;;;;4.80;0.80;;;6.10;99.90;;;;;;5056161;28;20402;-61
2022/01/09 11:09:26;;;;;;;4.70;1.00;;;6.70;99.90;;;;;;5052613;28;20870;-62
2022/01/09 11:11:52;;;;;;;5.90;1.40;;;6.90;99.90;;;;;;5051363;28;20394;-60
2022/01/09 11:14:20;;;;;;;5.45;1.17;;;6.80;99.90;;;;;;5035697;28;20493;-61
2022/01/09 11:16:51;;;;;;;4.40;1.00;;;6.30;99.90;;;;;;5052736;28;20513;-61
2022/01/09 11:19:26;;;;;;;4.90;1.20;;;5.90;99.90;;;;;;5033434;28;20905;-61
2022/01/09 11:22:00;;;;;;;4.25;1.00;;;5.60;99.90;;;;;;5053133;28;20774;-61
2022/01/09 11:24:57;;;;;;;7.60;1.30;;;5.60;99.90;;;;;;5055597;28;20395;-62
2022/01/09 11:27:33;;;;;;;6.00;1.20;;;5.50;99.90;;;;;;5052838;28;20401;-62
2022/01/09 11:30:37;;;;;;;5.15;1.60;;;5.30;99.90;;;;;;5050394;28;20945;-63
2022/01/09 11:33:19;;;;;;;6.88;1.60;;;5.40;99.90;;;;;;5023492;28;20508;-59
2022/01/09 11:36:16;;;;;;;4.80;1.10;;;5.40;99.90;;;;;;5059360;28;20491;-62
2022/01/09 11:39:14;;;;;;;8.77;1.70;;;5.50;99.90;;;;;;5057860;28;20401;-62
2022/01/09 11:41:45;;;;;;;7.75;1.60;;;5.50;99.90;;;;;;5052053;28;20492;-62
2022/01/09 11:44:13;;;;;;;6.70;1.42;;;5.50;99.90;;;;;;5051901;28;20392;-62
2022/01/09 11:47:03;;;;;;;6.63;1.40;;;5.60;99.90;;;;;;5051434;28;20409;-63
2022/01/09 11:50:00;;;;;;;7.15;1.30;;;5.70;99.90;;;;;;5048670;28;20427;-63
2022/01/09 11:52:27;;;;;;;6.90;1.50;;;5.90;99.90;;;;;;5049206;28;20408;-63
2022/01/09 11:54:54;;;;;;;7.47;1.60;;;5.70;99.90;;;;;;5053737;28;20435;-62
2022/01/09 11:57:35;;;;;;;7.40;1.30;;;5.70;99.90;;;;;;5051322;28;20413;-62
2022/01/09 12:00:03;;;;;;;8.75;1.38;;;5.80;99.90;;;;;;5053676;28;20949;-62
2022/01/09 12:02:31;;;;;;;9.25;1.60;;;5.80;99.90;;;;;;5056800;28;20409;-61
2022/01/09 12:05:07;;;;;;;8.50;1.75;;;5.70;99.90;;;;;;5056597;28;20446;-62
2022/01/09 12:07:33;;;;;;;6.57;1.50;;;5.60;99.90;;;;;;5054058;28;20413;-62
2022/01/09 12:10:01;;;;;;;9.02;1.48;;;5.60;99.90;;;;;;5054697;28;20415;-62
2022/01/09 12:12:36;;;;;;;7.55;1.40;;;5.50;99.90;;;;;;5054437;28;20432;-62
2022/01/09 12:15:04;;;;;;;4.60;1.30;;;5.50;99.90;;;;;;5051925;28;20966;-59
2022/01/09 12:17:39;;;;;;;6.90;1.50;;;5.50;99.90;;;;;;5057433;28;20400;-62
2022/01/09 12:20:14;;;;;;;7.20;1.40;;;5.50;99.90;;;;;;5056737;28;20409;-59
2022/01/09 12:25:09;;;;;;;8.83;1.90;;;5.60;99.90;;;;;;5063981;28;20391;-62
2022/01/09 12:27:48;;;;;;;8.80;1.85;;;5.60;99.90;;;;;;5066875;28;20494;-62
2022/01/09 12:30:41;;;;;;;9.57;2.00;;;5.70;99.90;;;;;;5060152;28;20383;-63
2022/01/09 12:33:34;;;;;;;9.20;1.80;;;5.80;99.90;;;;;;5070995;28;20395;-62
2022/01/09 12:36:07;;;;;;;6.70;1.70;;;5.80;99.90;;;;;;5056650;28;20506;-62
2022/01/09 12:38:51;;;;;;;7.63;1.90;;;5.70;99.90;;;;;;5063023;28;20461;-62
2022/01/09 12:41:30;;;;;;;8.90;2.45;;;5.80;99.90;;;;;;5063749;28;20894;-62
2022/01/09 12:44:00;;;;;;;7.15;1.95;;;5.70;99.90;;;;;;5053237;28;20448;-63
2022/01/09 12:46:29;;;;;;;7.78;1.95;;;5.80;99.90;;;;;;5055099;28;20423;-62
2022/01/09 12:49:00;;;;;;;7.90;1.80;;;6.00;99.90;;;;;;5064710;28;20509;-63
2022/01/09 12:51:29;;;;;;;10.40;2.47;;;6.00;99.90;;;;;;5044107;28;20396;-62
2022/01/09 12:53:57;;;;;;;6.50;1.20;;;5.90;99.90;;;;;;5063260;28;20479;-62
2022/01/09 12:56:27;;;;;;;6.63;1.30;;;5.20;99.90;;;;;;5068439;28;20427;-63
2022/01/09 12:59:07;;;;;;;9.57;1.40;;;5.00;99.90;;;;;;5071268;28;20376;-63
2022/01/09 13:01:40;;;;;;;6.78;1.05;;;4.70;99.90;;;;;;5065623;28;20575;-63
2022/01/09 13:04:22;;;;;;;4.55;1.10;;;4.60;99.90;;;;;;5066465;28;20905;-60